Time;durP1;ratioP1;P1;durP2;ratioP2;P2;SDS_P1;SDS_P2;PMS_P1;PMS_P2;Temp;Humidity;BMP_temperature;BMP_pressure;BME280_temperature;BME280_humidity;BME280_pressure;Samples;Min_cycle;Max_cycle;Signal;HPM_P1;HPM_P2
2023/06/02 00:01:09;;;;;;;;;;;;;;;17.12;31.15;100650.97;4957474;28;98470;-70
2023/06/02 00:03:36;;;;;;;;;;;;;;;17.07;31.28;100655.75;4944445;28;98328;-70
2023/06/02 00:06:05;;;;;;;;;;;;;;;17.02;31.23;100653.94;4936188;28;98335;-66
2023/06/02 00:08:31;;;;;;;;;;;;;;;16.98;30.97;100657.56;4944102;28;98042;-70
2023/06/02 00:10:58;;;;;;;;;;;;;;;16.93;31.34;100651.13;4957517;28;98304;-70
2023/06/02 00:13:25;;;;;;;;;;;;;;;16.88;31.47;100656.69;4947420;28;98007;-71
2023/06/02 00:15:51;;;;;;;;;;;;;;;16.86;31.37;100660.84;4935408;27;99553;-66
2023/06/02 00:18:20;;;;;;;;;;;;;;;16.83;31.27;100673.13;4969882;27;97935;-70
2023/06/02 00:20:46;;;;;;;;;;;;;;;16.78;31.27;100666.97;4948097;27;99710;-70
2023/06/02 00:23:13;;;;;;;;;;;;;;;16.76;31.35;100666.47;4952652;27;98310;-70
2023/06/02 00:25:42;;;;;;;;;;;;;;;16.73;31.40;100675.22;4945769;27;97977;-66
2023/06/02 00:28:09;;;;;;;;;;;;;;;16.70;31.36;100668.44;4947506;28;98001;-70
2023/06/02 00:30:35;;;;;;;;;;;;;;;16.67;31.36;100675.31;4966341;27;99120;-70
2023/06/02 00:33:01;;;;;;;;;;;;;;;16.66;31.36;100678.34;4955263;27;99747;-71
2023/06/02 00:35:28;;;;;;;;;;;;;;;16.63;31.29;100677.03;4922568;28;98347;-66
2023/06/02 00:37:55;;;;;;;;;;;;;;;16.60;31.44;100674.91;4975893;28;98277;-66
2023/06/02 00:40:22;;;;;;;;;;;;;;;16.55;31.36;100669.59;4952440;27;99016;-70
2023/06/02 00:42:48;;;;;;;;;;;;;;;16.53;31.36;100684.59;4954201;27;100430;-72
2023/06/02 00:45:15;;;;;;;;;;;;;;;16.49;31.50;100680.88;4931833;27;99079;-66
2023/06/02 00:47:42;;;;;;;;;;;;;;;16.45;31.58;100678.75;4946912;27;98228;-70
2023/06/02 00:50:09;;;;;;;;;;;;;;;16.42;31.39;100671.16;4944198;27;98616;-65
2023/06/02 00:52:35;;;;;;;;;;;;;;;16.42;31.38;100678.53;4952962;27;99733;-66
2023/06/02 00:55:02;;;;;;;;;;;;;;;16.38;31.40;100674.81;4953914;27;98071;-71
2023/06/02 00:57:33;;;;;;;;;;;;;;;16.36;31.42;100672.38;4951725;28;97999;-67
2023/06/02 01:00:00;;;;;;;;;;;;;;;16.35;31.44;100691.75;4954640;27;98434;-66
2023/06/02 01:02:26;;;;;;;;;;;;;;;16.32;31.37;100674.09;4968809;28;98222;-70
2023/06/02 01:04:57;;;;;;;;;;;;;;;16.29;31.59;100676.63;4970509;27;98244;-66
2023/06/02 01:07:24;;;;;;;;;;;;;;;16.23;31.53;100680.53;4965388;28;98572;-66
2023/06/02 01:09:51;;;;;;;;;;;;;;;16.14;31.47;100686.66;4954144;28;98017;-70
2023/06/02 01:12:17;;;;;;;;;;;;;;;16.10;31.63;100693.00;4942831;28;98371;-70
2023/06/02 01:14:44;;;;;;;;;;;;;;;16.04;31.75;100694.19;4944800;28;98606;-71
2023/06/02 01:17:11;;;;;;;;;;;;;;;16.00;31.57;100690.47;4967214;27;98847;-66
2023/06/02 01:19:38;;;;;;;;;;;;;;;15.95;31.67;100694.88;4970435;28;98068;-70
2023/06/02 01:22:04;;;;;;;;;;;;;;;15.89;31.46;100693.34;4967952;27;98298;-66
2023/06/02 01:24:40;;;;;;;;;;;;;;;15.83;31.39;100699.16;4965943;27;98090;-69
2023/06/02 01:27:11;;;;;;;;;;;;;;;15.79;31.80;100700.84;4945100;28;98017;-70
2023/06/02 01:29:37;;;;;;;;;;;;;;;15.73;31.90;100699.31;4949169;28;98140;-70
2023/06/02 01:32:09;;;;;;;;;;;;;;;15.69;31.69;100699.91;4951635;27;100114;-70
2023/06/02 01:34:41;;;;;;;;;;;;;;;15.68;31.74;100697.50;4968564;28;99265;-70
2023/06/02 01:37:08;;;;;;;;;;;;;;;15.67;31.64;100702.09;4950476;27;98324;-67
2023/06/02 01:39:34;;;;;;;;;;;;;;;15.65;31.89;100707.03;4944137;27;97876;-66
2023/06/02 01:42:01;;;;;;;;;;;;;;;15.62;31.91;100702.16;4954521;27;98305;-70
2023/06/02 01:44:28;;;;;;;;;;;;;;;15.61;31.89;100705.19;4967483;28;98277;-66
2023/06/02 01:46:54;;;;;;;;;;;;;;;15.59;31.49;100702.75;4947534;28;98269;-65
2023/06/02 01:49:20;;;;;;;;;;;;;;;15.56;31.73;100699.81;4931309;28;99045;-70
2023/06/02 01:51:46;;;;;;;;;;;;;;;15.54;31.67;100710.19;4953986;28;98551;-70
2023/06/02 01:54:13;;;;;;;;;;;;;;;15.51;31.92;100703.41;4950439;27;98022;-70
2023/06/02 01:56:39;;;;;;;;;;;;;;;15.48;31.64;100706.72;4945987;28;98525;-70
2023/06/02 01:59:05;;;;;;;;;;;;;;;15.45;31.63;100702.69;4934113;27;98514;-70
2023/06/02 02:01:32;;;;;;;;;;;;;;;15.42;31.90;100705.19;4947009;27;98033;-70
2023/06/02 02:03:59;;;;;;;;;;;;;;;15.39;31.89;100700.34;4949460;27;98000;-66
2023/06/02 02:06:29;;;;;;;;;;;;;;;15.36;31.71;100707.16;4946123;27;98399;-70
2023/06/02 02:08:58;;;;;;;;;;;;;;;15.33;32.10;100707.75;4948469;27;99670;-66
2023/06/02 02:11:27;;;;;;;;;;;;;;;15.31;31.87;100704.50;4933621;27;97935;-66
2023/06/02 02:13:54;;;;;;;;;;;;;;;15.28;31.96;100709.72;4945630;27;97956;-66
2023/06/02 02:16:20;;;;;;;;;;;;;;;15.23;32.02;100705.16;4952500;27;98361;-66
2023/06/02 02:18:47;;;;;;;;;;;;;;;15.20;31.80;100713.91;4955635;27;100360;-70
2023/06/02 02:21:13;;;;;;;;;;;;;;;15.17;32.13;100711.78;4942591;28;99699;-65
2023/06/02 02:23:40;;;;;;;;;;;;;;;15.14;31.65;100715.88;4966723;27;98066;-70
2023/06/02 02:26:07;;;;;;;;;;;;;;;15.11;31.77;100710.22;4964970;27;98385;-70
2023/06/02 02:28:33;;;;;;;;;;;;;;;15.10;31.79;100720.28;4967595;27;98073;-70
2023/06/02 02:31:04;;;;;;;;;;;;;;;15.11;31.84;100721.88;4969072;28;98006;-66
2023/06/02 02:33:31;;;;;;;;;;;;;;;15.10;31.74;100719.47;4947294;27;99143;-70
2023/06/02 02:35:57;;;;;;;;;;;;;;;15.10;31.93;100722.19;4950561;28;98495;-70
2023/06/02 02:38:23;;;;;;;;;;;;;;;15.07;31.73;100726.28;4947880;28;99202;-70
2023/06/02 02:40:49;;;;;;;;;;;;;;;15.08;31.53;100719.75;4949831;27;98286;-70
2023/06/02 02:43:17;;;;;;;;;;;;;;;15.14;31.99;100717.78;4964491;28;98201;-70
2023/06/02 02:45:44;;;;;;;;;;;;;;;15.20;32.04;100722.03;4958375;27;97926;-69
2023/06/02 02:48:10;;;;;;;;;;;;;;;15.24;32.05;100723.06;4948403;27;98374;-69
2023/06/02 02:50:37;;;;;;;;;;;;;;;15.29;31.71;100728.44;4949469;27;98610;-66
2023/06/02 02:53:03;;;;;;;;;;;;;;;15.32;31.73;100724.31;4965223;27;99715;-70
2023/06/02 02:55:32;;;;;;;;;;;;;;;15.35;32.07;100735.41;4954230;27;98382;-66
2023/06/02 02:58:01;;;;;;;;;;;;;;;15.37;32.09;100732.44;4949671;28;98277;-70
2023/06/02 03:00:28;;;;;;;;;;;;;;;15.38;31.79;100731.31;4949980;27;97962;-70
2023/06/02 03:02:56;;;;;;;;;;;;;;;15.40;32.08;100734.53;4933133;27;98788;-66
2023/06/02 03:05:23;;;;;;;;;;;;;;;15.41;31.85;100736.16;4970487;27;98294;-65
2023/06/02 03:07:49;;;;;;;;;;;;;;;15.43;32.04;100742.91;4958549;27;98034;-70
2023/06/02 03:10:16;;;;;;;;;;;;;;;15.44;31.89;100739.13;4970189;28;97763;-67
2023/06/02 03:12:42;;;;;;;;;;;;;;;15.44;32.08;100741.84;4941637;28;98379;-71
2023/06/02 03:15:09;;;;;;;;;;;;;;;15.43;32.13;100747.53;4971755;28;98085;-67
2023/06/02 03:17:37;;;;;;;;;;;;;;;15.42;31.96;100746.72;4952378;28;97998;-67
2023/06/02 03:20:09;;;;;;;;;;;;;;;15.42;32.14;100746.72;4951959;27;100993;-71
2023/06/02 03:22:36;;;;;;;;;;;;;;;15.42;31.81;100751.38;4949492;27;101718;-71
2023/06/02 03:25:03;;;;;;;;;;;;;;;15.42;32.19;100756.78;4949193;28;98864;-67
2023/06/02 03:27:29;;;;;;;;;;;;;;;15.42;32.27;100751.38;4961915;28;100608;-71
2023/06/02 03:29:56;;;;;;;;;;;;;;;15.41;32.26;100761.41;4947080;28;97955;-71
2023/06/02 03:32:22;;;;;;;;;;;;;;;15.39;32.12;100762.81;4951566;27;97955;-66
2023/06/02 03:34:48;;;;;;;;;;;;;;;15.38;32.13;100753.03;4937571;27;101779;-71
2023/06/02 03:37:15;;;;;;;;;;;;;;;15.38;31.91;100756.56;4963307;27;98542;-71
2023/06/02 03:39:41;;;;;;;;;;;;;;;15.36;32.31;100761.47;4933281;28;98514;-67
2023/06/02 03:42:07;;;;;;;;;;;;;;;15.35;32.11;100765.28;4936543;28;98321;-71
2023/06/02 03:44:34;;;;;;;;;;;;;;;15.34;32.16;100758.25;4971147;27;98004;-71
2023/06/02 03:47:00;;;;;;;;;;;;;;;15.34;31.95;100766.41;4950802;27;97921;-66
2023/06/02 03:49:29;;;;;;;;;;;;;;;15.33;32.26;100772.13;4949577;27;99229;-70
2023/06/02 03:51:55;;;;;;;;;;;;;;;15.32;31.92;100774.00;4955637;27;98222;-66
2023/06/02 03:54:21;;;;;;;;;;;;;;;15.34;32.10;100777.25;4963318;28;98260;-66
2023/06/02 03:56:48;;;;;;;;;;;;;;;15.37;32.15;100775.88;4968428;28;98253;-66
2023/06/02 03:59:15;;;;;;;;;;;;;;;15.37;32.22;100787.56;4923507;27;98554;-71
2023/06/02 04:01:41;;;;;;;;;;;;;;;15.41;32.11;100776.91;4968194;28;98467;-71
2023/06/02 04:04:11;;;;;;;;;;;;;;;15.41;31.99;100777.72;4951483;27;98153;-66
2023/06/02 04:06:40;;;;;;;;;;;;;;;15.44;32.03;100785.28;4951703;27;98089;-71
2023/06/02 04:09:07;;;;;;;;;;;;;;;15.48;31.84;100793.63;4952711;27;99480;-67
2023/06/02 04:11:33;;;;;;;;;;;;;;;15.51;32.22;100789.53;4964177;27;98090;-70
2023/06/02 04:14:00;;;;;;;;;;;;;;;15.55;32.19;100793.28;4950836;28;98140;-70
2023/06/02 04:16:26;;;;;;;;;;;;;;;15.57;31.81;100794.63;4947907;28;98742;-71
2023/06/02 04:18:53;;;;;;;;;;;;;;;15.60;31.93;100798.63;4969236;27;99810;-72
2023/06/02 04:21:19;;;;;;;;;;;;;;;15.64;32.21;100802.38;4968282;27;99685;-71
2023/06/02 04:23:45;;;;;;;;;;;;;;;15.66;31.82;100805.66;4944459;27;98870;-66
2023/06/02 04:26:11;;;;;;;;;;;;;;;15.68;31.91;100809.72;4948758;28;98201;-67
2023/06/02 04:28:37;;;;;;;;;;;;;;;15.74;32.00;100812.34;4957429;27;98171;-66
2023/06/02 04:31:05;;;;;;;;;;;;;;;15.78;31.94;100814.19;4951826;27;98758;-67
2023/06/02 04:33:32;;;;;;;;;;;;;;;15.81;32.11;100815.53;4950591;27;98897;-67
2023/06/02 04:35:58;;;;;;;;;;;;;;;15.82;31.74;100807.06;4962887;28;98441;-67
2023/06/02 04:38:26;;;;;;;;;;;;;;;15.85;31.79;100813.84;4962508;27;99945;-70
2023/06/02 04:40:52;;;;;;;;;;;;;;;15.88;31.72;100813.25;4950046;27;97881;-71
2023/06/02 04:43:20;;;;;;;;;;;;;;;15.91;31.93;100812.63;4947872;28;98032;-67
2023/06/02 04:45:47;;;;;;;;;;;;;;;15.89;31.81;100818.38;4963887;27;98424;-71
2023/06/02 04:48:13;;;;;;;;;;;;;;;15.91;31.87;100824.31;4936791;27;98255;-71
2023/06/02 04:50:40;;;;;;;;;;;;;;;15.98;31.89;100818.50;4937283;27;98360;-71
2023/06/02 04:53:06;;;;;;;;;;;;;;;16.02;31.88;100827.69;4948693;27;98442;-66
2023/06/02 04:55:32;;;;;;;;;;;;;;;16.07;31.83;100826.81;4953438;27;98391;-67
2023/06/02 04:57:58;;;;;;;;;;;;;;;16.10;31.95;100831.66;4951020;28;98146;-71
2023/06/02 05:00:25;;;;;;;;;;;;;;;16.16;31.87;100825.84;4948920;27;98088;-71
2023/06/02 05:02:52;;;;;;;;;;;;;;;16.28;31.69;100825.41;4928878;27;98179;-67
2023/06/02 05:05:18;;;;;;;;;;;;;;;16.39;31.84;100828.78;4945151;27;98435;-71
2023/06/02 05:07:45;;;;;;;;;;;;;;;16.50;31.58;100827.47;4947534;27;98725;-67
2023/06/02 05:10:11;;;;;;;;;;;;;;;16.70;31.49;100826.31;4933944;27;99408;-67
2023/06/02 05:12:41;;;;;;;;;;;;;;;16.85;31.41;100825.25;4944880;28;98788;-69
2023/06/02 05:15:08;;;;;;;;;;;;;;;16.89;31.52;100824.34;4948730;28;98569;-71
2023/06/02 05:17:34;;;;;;;;;;;;;;;17.00;31.42;100832.34;4945818;28;98674;-67
2023/06/02 05:20:00;;;;;;;;;;;;;;;17.31;31.21;100822.47;4946735;27;98206;-71
2023/06/02 05:22:27;;;;;;;;;;;;;;;17.55;31.28;100826.88;4948349;28;98326;-66
2023/06/02 05:24:54;;;;;;;;;;;;;;;17.68;31.05;100831.50;4951021;28;98098;-66
2023/06/02 05:27:20;;;;;;;;;;;;;;;17.83;31.06;100830.38;4926631;28;101911;-66
2023/06/02 05:29:46;;;;;;;;;;;;;;;17.76;31.31;100833.50;4905636;27;99528;-71
2023/06/02 05:32:12;;;;;;;;;;;;;;;17.74;31.30;100833.00;4953396;28;98012;-66
2023/06/02 05:34:43;;;;;;;;;;;;;;;17.97;31.25;100833.09;4965009;28;97986;-71
2023/06/02 05:37:09;;;;;;;;;;;;;;;18.22;30.98;100837.13;4951124;27;99619;-66
2023/06/02 05:39:36;;;;;;;;;;;;;;;18.24;31.07;100838.44;4951257;27;98358;-71
2023/06/02 05:42:02;;;;;;;;;;;;;;;18.29;31.31;100842.97;4944395;28;98024;-66
2023/06/02 05:44:29;;;;;;;;;;;;;;;18.43;31.22;100837.41;4944558;28;97998;-71
2023/06/02 05:46:56;;;;;;;;;;;;;;;18.44;31.22;100844.50;4948274;28;98203;-67
2023/06/02 05:49:22;;;;;;;;;;;;;;;18.40;31.27;100838.88;4971990;27;124087;-71
2023/06/02 05:51:48;;;;;;;;;;;;;;;18.58;31.27;100839.78;4948097;27;98175;-72
2023/06/02 05:54:15;;;;;;;;;;;;;;;19.04;30.88;100835.88;4966011;27;98311;-67
2023/06/02 05:56:41;;;;;;;;;;;;;;;19.44;30.90;100833.09;4968402;27;97983;-72
2023/06/02 05:59:08;;;;;;;;;;;;;;;19.83;30.85;100837.72;4963282;27;100147;-67
2023/06/02 06:01:34;;;;;;;;;;;;;;;20.04;30.81;100835.13;4954178;28;98123;-67
2023/06/02 06:04:00;;;;;;;;;;;;;;;20.59;30.59;100834.44;4932974;27;99035;-72
2023/06/02 06:06:27;;;;;;;;;;;;;;;21.40;30.34;100847.22;4950830;27;110149;-69
2023/06/02 06:08:53;;;;;;;;;;;;;;;23.33;29.08;100840.44;4951356;27;98294;-67
2023/06/02 06:11:21;;;;;;;;;;;;;;;23.33;29.22;100839.66;4942867;27;108097;-67
2023/06/02 06:13:48;;;;;;;;;;;;;;;22.89;29.84;100855.84;4950796;27;98130;-72
2023/06/02 06:16:14;;;;;;;;;;;;;;;22.46;30.31;100857.13;4922595;28;97748;-67
2023/06/02 06:18:41;;;;;;;;;;;;;;;22.24;30.46;100859.09;4911893;28;99041;-68
2023/06/02 06:21:07;;;;;;;;;;;;;;;22.24;30.52;100859.09;4928262;28;98211;-67
2023/06/02 06:23:34;;;;;;;;;;;;;;;22.03;30.70;100861.00;4927153;28;98059;-72
2023/06/02 06:26:00;;;;;;;;;;;;;;;22.08;30.64;100860.00;4926808;28;97822;-67
2023/06/02 06:28:26;;;;;;;;;;;;;;;22.02;30.53;100857.47;4949188;28;98105;-67
2023/06/02 06:30:52;;;;;;;;;;;;;;;22.07;30.41;100850.97;4919844;28;98355;-72
2023/06/02 06:33:19;;;;;;;;;;;;;;;22.72;29.95;100845.88;4911959;28;98294;-67
2023/06/02 06:35:45;;;;;;;;;;;;;;;22.65;30.37;100854.66;4925056;28;100323;-67
2023/06/02 06:38:12;;;;;;;;;;;;;;;23.12;29.74;100848.81;4928931;28;99669;-72
2023/06/02 06:40:38;;;;;;;;;;;;;;;23.47;29.57;100845.59;4912312;28;98141;-67
2023/06/02 06:43:04;;;;;;;;;;;;;;;23.50;29.71;100850.41;4919155;28;98269;-72
2023/06/02 06:45:30;;;;;;;;;;;;;;;23.69;29.67;100855.34;4927250;28;97938;-72
2023/06/02 06:47:57;;;;;;;;;;;;;;;23.99;29.79;100853.09;4927161;28;98137;-67
2023/06/02 06:50:23;;;;;;;;;;;;;;;23.80;29.73;100852.91;4934263;28;98459;-72
2023/06/02 06:52:50;;;;;;;;;;;;;;;23.99;29.59;100861.34;4920273;28;98157;-67
2023/06/02 06:55:16;;;;;;;;;;;;;;;24.35;29.68;100856.88;4920683;28;98241;-67
2023/06/02 06:57:42;;;;;;;;;;;;;;;24.11;29.80;100861.31;4926280;28;99820;-67
2023/06/02 07:00:09;;;;;;;;;;;;;;;24.03;29.89;100856.75;4927397;28;98670;-66
2023/06/02 07:02:35;;;;;;;;;;;;;;;24.41;29.47;100861.00;4911590;28;98129;-72
2023/06/02 07:05:01;;;;;;;;;;;;;;;26.17;28.31;100853.03;4917326;28;99991;-72
2023/06/02 07:07:28;;;;;;;;;;;;;;;27.29;28.08;100857.47;4919487;28;98217;-71
2023/06/02 07:09:54;;;;;;;;;;;;;;;28.10;27.46;100859.03;4930651;28;98131;-66
2023/06/02 07:12:20;;;;;;;;;;;;;;;26.52;29.01;100860.44;4930658;28;98074;-67
2023/06/02 07:14:46;;;;;;;;;;;;;;;26.55;29.02;100859.72;4941300;28;105758;-72
2023/06/02 07:17:13;;;;;;;;;;;;;;;26.69;28.90;100857.25;4941874;28;99719;-67
2023/06/02 07:19:39;;;;;;;;;;;;;;;28.05;28.13;100862.13;4966796;28;98212;-72
2023/06/02 07:22:06;;;;;;;;;;;;;;;27.90;28.51;100869.44;4955922;27;100252;-67
2023/06/02 07:24:32;;;;;;;;;;;;;;;27.82;28.38;100864.97;4950065;28;98540;-73
2023/06/02 07:26:59;;;;;;;;;;;;;;;28.66;27.89;100847.00;4955490;27;98282;-73
2023/06/02 07:29:25;;;;;;;;;;;;;;;29.52;27.82;100850.50;4933150;27;98155;-73
2023/06/02 07:31:52;;;;;;;;;;;;;;;29.44;27.85;100843.31;4955427;27;98227;-67
2023/06/02 07:34:19;;;;;;;;;;;;;;;28.89;28.44;100855.16;4954609;27;98427;-73
2023/06/02 07:36:47;;;;;;;;;;;;;;;28.43;28.65;100854.69;4956613;27;98287;-70
2023/06/02 07:39:14;;;;;;;;;;;;;;;28.22;28.95;100855.19;4949480;27;97988;-70
2023/06/02 07:41:40;;;;;;;;;;;;;;;28.78;28.57;100862.56;4954884;27;98205;-71
2023/06/02 07:44:06;;;;;;;;;;;;;;;29.29;28.17;100864.59;4952481;27;98108;-71
2023/06/02 07:46:32;;;;;;;;;;;;;;;30.30;27.53;100859.25;4986840;27;98068;-71
2023/06/02 07:49:00;;;;;;;;;;;;;;;30.90;27.41;100871.69;4955209;28;97914;-71
2023/06/02 07:51:26;;;;;;;;;;;;;;;31.56;27.03;100870.47;4971928;27;99343;-71
2023/06/02 07:53:53;;;;;;;;;;;;;;;32.54;26.85;100875.28;4952199;27;97957;-72
2023/06/02 07:56:21;;;;;;;;;;;;;;;33.11;26.24;100866.53;4951088;28;98149;-73
2023/06/02 07:58:47;;;;;;;;;;;;;;;33.55;26.17;100868.53;4951003;27;98156;-72
2023/06/02 08:01:17;;;;;;;;;;;;;;;33.83;26.61;100881.38;4955842;27;98427;-71
2023/06/02 08:03:42;;;;;;;;;;;;;;;32.31;27.45;100884.19;4956291;28;98129;-71
2023/06/02 08:06:08;;;;;;;;;;;;;;;32.56;27.44;100868.13;4971368;27;97932;-71
2023/06/02 08:08:34;;;;;;;;;;;;;;;34.15;26.24;100861.47;4956008;27;97773;-72
2023/06/02 08:11:02;;;;;;;;;;;;;;;35.06;25.69;100858.94;4937925;27;98758;-72
2023/06/02 08:13:30;;;;;;;;;;;;;;;35.93;25.62;100865.31;4970760;27;98032;-71
2023/06/02 08:15:57;;;;;;;;;;;;;;;36.45;25.48;100863.81;4942999;28;99116;-71
2023/06/02 08:18:24;;;;;;;;;;;;;;;37.21;25.29;100861.56;4940102;28;98738;-71
2023/06/02 08:20:51;;;;;;;;;;;;;;;37.56;24.99;100862.66;4948746;28;97963;-71
2023/06/02 08:23:19;;;;;;;;;;;;;;;38.15;25.04;100857.00;4950594;27;99035;-71
2023/06/02 08:25:46;;;;;;;;;;;;;;;38.65;24.94;100858.25;4956666;27;98030;-70
2023/06/02 08:28:13;;;;;;;;;;;;;;;38.96;25.20;100850.03;4961900;27;98855;-69
2023/06/02 08:30:44;;;;;;;;;;;;;;;39.42;25.08;100845.59;4944185;27;97938;-69
2023/06/02 08:33:10;;;;;;;;;;;;;;;39.98;24.89;100836.28;4978122;27;98548;-69
2023/06/02 08:35:37;;;;;;;;;;;;;;;40.12;24.78;100837.78;4954430;27;98128;-69
2023/06/02 08:38:07;;;;;;;;;;;;;;;40.48;24.72;100839.16;4959774;27;98068;-67
2023/06/02 08:40:37;;;;;;;;;;;;;;;40.99;24.73;100832.28;4966932;27;98080;-69
2023/06/02 08:43:04;;;;;;;;;;;;;;;41.22;24.61;100834.47;4962552;27;98470;-69
2023/06/02 08:45:31;;;;;;;;;;;;;;;38.05;26.72;100827.97;4952103;27;99304;-68
2023/06/02 08:47:57;;;;;;;;;;;;;;;37.93;26.37;100829.53;4955901;28;98274;-69
2023/06/02 08:50:29;;;;;;;;;;;;;;;36.22;27.76;100845.09;4935974;28;97969;-68
2023/06/02 08:53:03;;;;;;;;;;;;;;;35.42;28.23;100826.25;4946314;27;98368;-69
2023/06/02 08:55:29;;;;;;;;;;;;;;;34.95;28.19;100838.72;4951993;27;99023;-72
2023/06/02 08:57:55;;;;;;;;;;;;;;;33.20;29.04;100838.91;4952575;28;98459;-71
2023/06/02 09:00:22;;;;;;;;;;;;;;;32.38;29.43;100831.94;4952722;27;97927;-68
2023/06/02 09:02:48;;;;;;;;;;;;;;;33.08;28.77;100826.28;4962915;27;98308;-72
2023/06/02 09:05:18;;;;;;;;;;;;;;;32.57;28.87;100833.44;4952836;27;98266;-71
2023/06/02 09:07:45;;;;;;;;;;;;;;;31.64;29.18;100835.84;4931932;28;98133;-69
2023/06/02 09:10:27;;;;;;;;;;;;;;;31.60;28.88;100838.66;4939772;28;98202;-71
2023/06/02 09:12:53;;;;;;;;;;;;;;;30.04;29.75;100838.06;4945725;28;97943;-71
2023/06/02 09:15:19;;;;;;;;;;;;;;;32.77;27.17;100832.88;4932685;28;98329;-71
2023/06/02 09:17:45;;;;;;;;;;;;;;;34.04;26.56;100832.06;4951147;28;97965;-71
2023/06/02 09:20:12;;;;;;;;;;;;;;;33.53;27.49;100843.03;4945456;28;98022;-71
2023/06/02 09:22:55;;;;;;;;;;;;;;;32.69;27.90;100832.94;4943741;28;98079;-68
2023/06/02 09:25:23;;;;;;;;;;;;;;;32.23;28.22;100845.19;4945318;28;98029;-69
2023/06/02 09:27:54;;;;;;;;;;;;;;;32.07;28.22;100849.63;4938728;27;98058;-68
2023/06/02 09:30:21;;;;;;;;;;;;;;;32.74;27.71;100840.91;4965482;27;99711;-73
2023/06/02 09:32:55;;;;;;;;;;;;;;;31.84;28.17;100842.53;4945758;28;98468;-71
2023/06/02 09:35:42;;;;;;;;;;;;;;;34.52;26.25;100831.78;4957098;28;98306;-71
2023/06/02 09:38:11;;;;;;;;;;;;;;;33.01;27.73;100839.50;4952818;28;97775;-72
2023/06/02 09:40:38;;;;;;;;;;;;;;;31.38;28.97;100851.81;4944053;27;98209;-68
2023/06/02 09:43:05;;;;;;;;;;;;;;;30.04;29.84;100849.19;4982921;27;98016;-68
2023/06/02 09:45:32;;;;;;;;;;;;;;;28.99;30.34;100846.13;4938350;28;99587;-71
2023/06/02 09:47:59;;;;;;;;;;;;;;;28.20;30.59;100855.59;4944146;28;99039;-72
2023/06/02 09:50:33;;;;;;;;;;;;;;;27.55;30.77;100864.16;4932088;28;98158;-67
2023/06/02 09:53:07;;;;;;;;;;;;;;;27.10;30.63;100866.66;4964806;28;98034;-71
2023/06/02 09:55:35;;;;;;;;;;;;;;;26.90;30.53;100867.88;4947131;28;99732;-72
2023/06/02 09:58:02;;;;;;;;;;;;;;;26.61;30.52;100858.28;4939745;27;98191;-71
2023/06/02 10:00:28;;;;;;;;;;;;;;;26.61;30.42;100863.81;4934974;27;99901;-71
2023/06/02 10:02:54;;;;;;;;;;;;;;;30.03;27.43;100857.91;4943286;27;98031;-71
2023/06/02 10:05:22;;;;;;;;;;;;;;;28.67;28.57;100862.44;4961422;27;98682;-71
2023/06/02 10:08:18;;;;;;;;;;;;;;;27.81;29.43;100874.47;4948738;28;98010;-71
2023/06/02 10:10:47;;;;;;;;;;;;;;;27.51;29.68;100871.63;4962633;28;97994;-68
2023/06/02 10:14:03;;;;;;;;;;;;;;;27.00;29.83;100877.50;4959048;27;98719;-69
2023/06/02 10:16:41;;;;;;;;;;;;;;;26.12;30.39;100875.44;4882786;28;98186;-67
2023/06/02 10:19:34;;;;;;;;;;;;;;;25.39;30.96;100882.47;4872889;28;98015;-72
2023/06/02 10:22:10;;;;;;;;;;;;;;;24.84;30.84;100887.75;4958300;27;98371;-67
2023/06/02 10:24:47;;;;;;;;;;;;;;;24.39;31.38;100886.13;4940736;27;98238;-70
2023/06/02 10:27:25;;;;;;;;;;;;;;;24.02;31.22;100881.88;4964382;28;98296;-71
2023/06/02 10:29:52;;;;;;;;;;;;;;;23.68;31.17;100882.06;4963167;28;99226;-70
2023/06/02 10:32:33;;;;;;;;;;;;;;;23.50;31.17;100895.22;4949122;28;100176;-67
2023/06/02 10:35:01;;;;;;;;;;;;;;;23.35;31.18;100893.16;4958334;28;98565;-67
2023/06/02 10:37:27;;;;;;;;;;;;;;;23.24;31.28;100898.31;4951513;27;98051;-70
2023/06/02 10:39:54;;;;;;;;;;;;;;;23.23;30.93;100902.22;4984121;27;98759;-67
2023/06/02 10:42:22;;;;;;;;;;;;;;;23.28;30.88;100896.47;4947880;28;100192;-67
2023/06/02 10:44:49;;;;;;;;;;;;;;;23.39;30.74;100896.84;4940118;28;98048;-66
2023/06/02 10:47:18;;;;;;;;;;;;;;;23.56;30.73;100892.25;4946759;27;98129;-67
2023/06/02 10:50:02;;;;;;;;;;;;;;;23.75;30.50;100886.97;4980201;27;98266;-67
2023/06/02 10:52:33;;;;;;;;;;;;;;;23.94;30.15;100895.44;4951992;27;97992;-67
2023/06/02 10:55:11;;;;;;;;;;;;;;;24.16;30.14;100896.84;4929103;27;99600;-67
2023/06/02 10:57:56;;;;;;;;;;;;;;;24.38;30.05;100891.97;4968511;27;99389;-67
2023/06/02 11:00:35;;;;;;;;;;;;;;;24.62;30.07;100891.88;4977484;27;98328;-67
2023/06/02 11:03:22;;;;;;;;;;;;;;;24.90;29.84;100883.56;4966640;27;99741;-71
2023/06/02 11:05:49;;;;;;;;;;;;;;;25.85;29.23;100885.50;4964822;28;100134;-67
2023/06/02 11:08:17;;;;;;;;;;;;;;;26.02;28.95;100885.09;4933889;27;98003;-67
2023/06/02 11:10:51;;;;;;;;;;;;;;;25.40;29.67;100895.88;4975983;27;98120;-71
2023/06/02 11:13:21;;;;;;;;;;;;;;;24.93;29.99;100899.41;4965710;27;97936;-71
2023/06/02 11:15:59;;;;;;;;;;;;;;;24.54;30.33;100900.31;4938616;28;98446;-67
2023/06/02 11:18:28;;;;;;;;;;;;;;;24.12;30.67;100895.94;4977839;27;98249;-67
2023/06/02 11:20:59;;;;;;;;;;;;;;;23.73;30.69;100901.06;4986336;27;98019;-67
2023/06/02 11:23:26;;;;;;;;;;;;;;;23.32;30.86;100904.84;4948338;27;98609;-67
2023/06/02 11:26:01;;;;;;;;;;;;;;;22.94;31.24;100897.69;4931174;27;97951;-70
2023/06/02 11:28:27;;;;;;;;;;;;;;;22.62;31.36;100904.78;4979578;27;98112;-67
2023/06/02 11:31:23;;;;;;;;;;;;;;;22.36;31.34;100905.03;4959621;27;98083;-71
2023/06/02 11:33:51;;;;;;;;;;;;;;;22.03;31.51;100908.47;4927884;27;99048;-70
2023/06/02 11:36:30;;;;;;;;;;;;;;;21.70;31.61;100913.88;4965910;27;100010;-67
2023/06/02 11:39:03;;;;;;;;;;;;;;;21.38;31.67;100917.22;4939018;27;98610;-70
2023/06/02 11:41:29;;;;;;;;;;;;;;;21.15;31.74;100925.69;4946686;27;98067;-70
2023/06/02 11:44:05;;;;;;;;;;;;;;;21.02;31.80;100932.97;4963698;28;98810;-70
2023/06/02 11:46:32;;;;;;;;;;;;;;;20.95;31.71;100935.41;4952565;28;98258;-66
2023/06/02 11:49:00;;;;;;;;;;;;;;;20.88;31.67;100940.59;4943885;27;100929;-67
2023/06/02 11:51:27;;;;;;;;;;;;;;;20.80;31.65;100933.19;4960244;28;98127;-70
2023/06/02 11:54:19;;;;;;;;;;;;;;;20.76;31.71;100944.00;4951119;27;98313;-67
2023/06/02 11:56:46;;;;;;;;;;;;;;;20.76;31.51;100940.44;4948872;27;98409;-67
2023/06/02 11:59:16;;;;;;;;;;;;;;;20.79;31.40;100943.34;4949812;27;98026;-67
2023/06/02 12:01:43;;;;;;;;;;;;;;;20.88;31.33;100939.78;4955016;27;98100;-67
2023/06/02 12:04:12;;;;;;;;;;;;;;;20.99;31.30;100941.06;4945054;27;103202;-71
2023/06/02 12:06:45;;;;;;;;;;;;;;;21.11;31.25;100938.44;4970633;27;98395;-70
2023/06/02 12:09:12;;;;;;;;;;;;;;;21.28;31.06;100935.63;4982627;27;100056;-67
2023/06/02 12:11:39;;;;;;;;;;;;;;;21.49;30.94;100943.16;4979234;27;97886;-66
2023/06/02 12:14:06;;;;;;;;;;;;;;;21.68;30.77;100935.31;4963736;28;99498;-67
2023/06/02 12:16:40;;;;;;;;;;;;;;;21.88;30.63;100932.94;4963124;27;98604;-67
2023/06/02 12:19:20;;;;;;;;;;;;;;;22.10;30.67;100940.09;4953805;27;99091;-66
2023/06/02 12:21:53;;;;;;;;;;;;;;;22.34;30.55;100937.50;4950034;27;98351;-71
2023/06/02 12:24:37;;;;;;;;;;;;;;;22.61;30.40;100932.59;4946739;28;98690;-66
2023/06/02 12:27:04;;;;;;;;;;;;;;;22.92;30.42;100926.66;4959786;27;98138;-66
2023/06/02 12:29:31;;;;;;;;;;;;;;;23.16;30.11;100926.72;4925581;27;99745;-71
2023/06/02 12:32:01;;;;;;;;;;;;;;;23.38;30.24;100924.66;4948896;27;98147;-66
2023/06/02 12:34:30;;;;;;;;;;;;;;;23.56;30.11;100926.06;4961829;28;98684;-71
2023/06/02 12:36:56;;;;;;;;;;;;;;;23.75;30.03;100926.31;4931328;28;100393;-66
2023/06/02 12:39:24;;;;;;;;;;;;;;;23.93;29.87;100926.03;4924384;27;98408;-71
2023/06/02 12:41:50;;;;;;;;;;;;;;;24.16;29.78;100931.84;4950344;27;98266;-66